KLM1207 EHAM-ENGM
Flight info
| Callsign | KLM1207 |
|---|---|
| Flight time | N/A |
| Altitude | 35000 |
| Route | ANDIK2S/24 ANDIK Z733 KONOM DCT AMADA DCT PIPEX M609 RIPAM |
| Aircraft | A21N/M-SDE2E3FGHIRWXY/LB1 |
Departure
| Time | N/A |
|---|---|
| Airport | Amsterdam Airport Schiphol (EHAM) |
Arrival
| Time | 2026-05-04 12:56 |
|---|---|
| Airport | Oslo-Gardermoen International Airport (ENGM) |
| Time | Latitude | Longitude | Altitude | Speed | Heading |
|---|---|---|---|---|---|
| 2026-05-04 12:36 | 59.54873 | 9.87301 | 12256 ft | 313 kts | 9° |
| 2026-05-04 12:37 | 59.56954 | 9.88466 | 11874 ft | 309 kts | 9° |
| 2026-05-04 12:37 | 59.59005 | 9.89621 | 11748 ft | 305 kts | 9° |
| 2026-05-04 12:37 | 59.61049 | 9.90770 | 11743 ft | 306 kts | 9° |
| 2026-05-04 12:37 | 59.63095 | 9.91921 | 11737 ft | 306 kts | 9° |
| 2026-05-04 12:38 | 59.65150 | 9.93077 | 11745 ft | 306 kts | 9° |
| 2026-05-04 12:38 | 59.67170 | 9.94208 | 11751 ft | 306 kts | 9° |
| 2026-05-04 12:38 | 59.69217 | 9.95350 | 11738 ft | 306 kts | 9° |
| 2026-05-04 12:38 | 59.71292 | 9.96508 | 11741 ft | 306 kts | 9° |
| 2026-05-04 12:39 | 59.73314 | 9.97638 | 11737 ft | 306 kts | 9° |
| 2026-05-04 12:39 | 59.75364 | 9.98786 | 11740 ft | 306 kts | 9° |
| 2026-05-04 12:39 | 59.77420 | 9.99940 | 11696 ft | 307 kts | 9° |
| 2026-05-04 12:39 | 59.79469 | 10.01091 | 11477 ft | 305 kts | 9° |
| 2026-05-04 12:40 | 59.81507 | 10.02239 | 11214 ft | 303 kts | 9° |
| 2026-05-04 12:40 | 59.85663 | 10.04580 | 10687 ft | 300 kts | 10° |
| 2026-05-04 12:40 | 59.87660 | 10.05703 | 10438 ft | 298 kts | 10° |
| 2026-05-04 12:41 | 59.89650 | 10.06828 | 10185 ft | 296 kts | 10° |
| 2026-05-04 12:41 | 59.91626 | 10.07947 | 9932 ft | 295 kts | 10° |
| 2026-05-04 12:41 | 59.93598 | 10.09067 | 9687 ft | 293 kts | 11° |
| 2026-05-04 12:41 | 59.95551 | 10.10199 | 9416 ft | 293 kts | 13° |
| 2026-05-04 12:42 | 59.97413 | 10.11922 | 9134 ft | 298 kts | 28° |
| 2026-05-04 12:42 | 59.99100 | 10.14337 | 8872 ft | 299 kts | 34° |
| 2026-05-04 12:42 | 60.00659 | 10.16993 | 8739 ft | 298 kts | 38° |
| 2026-05-04 12:42 | 60.02173 | 10.19852 | 8732 ft | 299 kts | 40° |
| 2026-05-04 12:43 | 60.03656 | 10.22788 | 8734 ft | 300 kts | 41° |
| 2026-05-04 12:43 | 60.05126 | 10.25745 | 8730 ft | 300 kts | 41° |
| 2026-05-04 12:43 | 60.06597 | 10.28705 | 8750 ft | 298 kts | 40° |
| 2026-05-04 12:43 | 60.08056 | 10.31626 | 8738 ft | 298 kts | 40° |
| 2026-05-04 12:44 | 60.09530 | 10.34550 | 8733 ft | 299 kts | 40° |
| 2026-05-04 12:44 | 60.11015 | 10.37474 | 8732 ft | 299 kts | 40° |
| 2026-05-04 12:44 | 60.12502 | 10.40393 | 8726 ft | 299 kts | 40° |
| 2026-05-04 12:44 | 60.13990 | 10.43312 | 8724 ft | 299 kts | 40° |
| 2026-05-04 12:45 | 60.15475 | 10.46230 | 8725 ft | 299 kts | 40° |
| 2026-05-04 12:45 | 60.16958 | 10.49150 | 8722 ft | 299 kts | 40° |
| 2026-05-04 12:45 | 60.18448 | 10.52090 | 8719 ft | 299 kts | 40° |
| 2026-05-04 12:45 | 60.19933 | 10.55023 | 8721 ft | 299 kts | 40° |
| 2026-05-04 12:46 | 60.21420 | 10.57969 | 8641 ft | 299 kts | 40° |
| 2026-05-04 12:46 | 60.22900 | 10.60902 | 8183 ft | 299 kts | 40° |
| 2026-05-04 12:46 | 60.24373 | 10.63829 | 7794 ft | 295 kts | 40° |
| 2026-05-04 12:46 | 60.25825 | 10.66716 | 7396 ft | 292 kts | 40° |
| 2026-05-04 12:47 | 60.27251 | 10.69552 | 6988 ft | 291 kts | 40° |
| 2026-05-04 12:47 | 60.28706 | 10.72447 | 6618 ft | 288 kts | 40° |
| 2026-05-04 12:47 | 60.30106 | 10.75243 | 6241 ft | 286 kts | 40° |
| 2026-05-04 12:47 | 60.31518 | 10.78067 | 5793 ft | 286 kts | 41° |
| 2026-05-04 12:48 | 60.32919 | 10.80866 | 5430 ft | 281 kts | 42° |
| 2026-05-04 12:48 | 60.34298 | 10.83633 | 5109 ft | 278 kts | 41° |
| 2026-05-04 12:48 | 60.35638 | 10.86332 | 4997 ft | 263 kts | 41° |
| 2026-05-04 12:48 | 60.36895 | 10.88867 | 4987 ft | 250 kts | 41° |
| 2026-05-04 12:49 | 60.38127 | 10.91346 | 4999 ft | 251 kts | 41° |
| 2026-05-04 12:49 | 60.39372 | 10.93833 | 4995 ft | 253 kts | 41° |
| 2026-05-04 12:49 | 60.40201 | 10.95495 | 4959 ft | 253 kts | 41° |
| 2026-05-04 12:49 | 60.41442 | 10.97982 | 4820 ft | 249 kts | 41° |
| 2026-05-04 12:50 | 60.42666 | 11.00448 | 4653 ft | 249 kts | 41° |
| 2026-05-04 12:50 | 60.43856 | 11.02980 | 4469 ft | 249 kts | 49° |
| 2026-05-04 12:50 | 60.44764 | 11.05992 | 4359 ft | 251 kts | 66° |
| 2026-05-04 12:50 | 60.45121 | 11.09449 | 4170 ft | 253 kts | 94° |
| 2026-05-04 12:51 | 60.44585 | 11.12822 | 3891 ft | 255 kts | 125° |
| 2026-05-04 12:51 | 60.43538 | 11.15680 | 3942 ft | 252 kts | 133° |
| 2026-05-04 12:51 | 60.42409 | 11.18407 | 3985 ft | 253 kts | 134° |
| 2026-05-04 12:51 | 60.41238 | 11.21062 | 3967 ft | 251 kts | 144° |
| 2026-05-04 12:52 | 60.39716 | 11.22437 | 3997 ft | 237 kts | 176° |
| 2026-05-04 12:52 | 60.38059 | 11.22567 | 3980 ft | 233 kts | 193° |
| 2026-05-04 12:52 | 60.36547 | 11.21838 | 4021 ft | 213 kts | 202° |
| 2026-05-04 12:52 | 60.35183 | 11.20977 | 3922 ft | 206 kts | 202° |
| 2026-05-04 12:53 | 60.33785 | 11.20169 | 3629 ft | 207 kts | 202° |
| 2026-05-04 12:53 | 60.32417 | 11.19385 | 3308 ft | 207 kts | 201° |
| 2026-05-04 12:53 | 60.31028 | 11.18565 | 3015 ft | 203 kts | 201° |
| 2026-05-04 12:53 | 60.29689 | 11.17795 | 2736 ft | 197 kts | 202° |
| 2026-05-04 12:54 | 60.28418 | 11.17061 | 2472 ft | 187 kts | 203° |
| 2026-05-04 12:54 | 60.27207 | 11.16356 | 2206 ft | 176 kts | 202° |
| 2026-05-04 12:54 | 60.26069 | 11.15697 | 1978 ft | 164 kts | 202° |
| 2026-05-04 12:54 | 60.25025 | 11.15094 | 1743 ft | 147 kts | 202° |
| 2026-05-04 12:55 | 60.24079 | 11.14543 | 1553 ft | 139 kts | 203° |
| 2026-05-04 12:55 | 60.23145 | 11.14001 | 1348 ft | 140 kts | 205° |
| 2026-05-04 12:55 | 60.22200 | 11.13447 | 1154 ft | 142 kts | 200° |
| 2026-05-04 12:55 | 60.21236 | 11.12894 | 940 ft | 150 kts | 201° |
| 2026-05-04 12:56 | 60.20219 | 11.12307 | 772 ft | 153 kts | 201° |
| 2026-05-04 12:56 | 60.19262 | 11.11740 | 689 ft | 127 kts | 196° |
| 2026-05-04 12:56 | 60.18692 | 11.11421 | 685 ft | 66 kts | 198° |
| 2026-05-04 12:56 | 60.18450 | 11.11125 | 683 ft | 11 kts | 259° |
| 2026-05-04 12:57 | 60.18447 | 11.11016 | 682 ft | 0 kts | 281° |
| 2026-05-04 12:57 | 60.18449 | 11.10993 | 686 ft | 0 kts | 280° |
| 2026-05-04 12:57 | 60.18450 | 11.10983 | 685 ft | 1 kts | 280° |
| 2026-05-04 12:57 | 60.18451 | 11.10975 | 685 ft | 0 kts | 280° |
| 2026-05-04 12:58 | 60.18451 | 11.10967 | 686 ft | 6 kts | 280° |
| 2026-05-04 12:58 | 60.18470 | 11.10819 | 684 ft | 12 kts | 301° |
| 2026-05-04 12:58 | 60.18551 | 11.10781 | 688 ft | 14 kts | 14° |
| 2026-05-04 12:58 | 60.18653 | 11.10838 | 689 ft | 17 kts | 15° |
| 2026-05-04 12:59 | 60.18779 | 11.10910 | 687 ft | 21 kts | 15° |
| 2026-05-04 12:59 | 60.18921 | 11.10996 | 684 ft | 22 kts | 17° |
| 2026-05-04 12:59 | 60.19069 | 11.11080 | 687 ft | 22 kts | 14° |
| 2026-05-04 12:59 | 60.19212 | 11.11162 | 690 ft | 23 kts | 15° |
| 2026-05-04 13:00 | 60.19377 | 11.11257 | 688 ft | 26 kts | 15° |
| 2026-05-04 13:00 | 60.19494 | 11.11205 | 690 ft | 18 kts | 291° |
| 2026-05-04 13:00 | 60.19534 | 11.10942 | 692 ft | 21 kts | 286° |
| 2026-05-04 13:00 | 60.19577 | 11.10644 | 693 ft | 23 kts | 286° |
| 2026-05-04 13:01 | 60.19615 | 11.10384 | 690 ft | 18 kts | 287° |
| 2026-05-04 13:01 | 60.19637 | 11.10231 | 686 ft | 3 kts | 287° |
| 2026-05-04 13:01 | 60.19640 | 11.10211 | 687 ft | 0 kts | 286° |